Terminal Aerodrome Forecast
Issued by NWS

Home | Current Version | Previous Version | Text Only | Print | Product List | Glossary On
Versions: 1 2 3 4 5 6 7 8 9 10 11 12 13 14 15 16 17 18 19 20 21 22 23 24 25 26 27
000
FTUS41 KBUF 260500
TAFJHW
TAF
KJHW 260520Z 2606/2706 24010KT P6SM SCT015 OVC025
     FM261300 22010KT P6SM SCT025 BKN035
     FM261700 21012KT P6SM FEW035 SCT060
     FM262200 21008KT P6SM SCT250
      AMD LTD TO CLD VIS AND WIND=

USA.gov is the U.S. government's official web portal to all federal, state and local government web resources and services.